Time;durP1;ratioP1;P1;durP2;ratioP2;P2;SDS_P1;SDS_P2;PMS_P1;PMS_P2;Temp;Humidity;BMP_temperature;BMP_pressure;BME280_temperature;BME280_humidity;BME280_pressure;Samples;Min_cycle;Max_cycle;Signal;HPM_P1;HPM_P2
2023/12/13 00:01:05;;;;;;;18.70;14.93;;;4.20;99.90;;;;;;5079003;28;20212;-87
2023/12/13 00:03:33;;;;;;;25.75;15.05;;;4.20;99.90;;;;;;5078138;28;20210;-87
2023/12/13 00:06:00;;;;;;;22.70;14.05;;;4.20;99.90;;;;;;5077839;28;20206;-87
2023/12/13 00:08:27;;;;;;;19.98;15.38;;;4.20;99.90;;;;;;5083098;28;20226;-87
2023/12/13 00:10:58;;;;;;;29.70;15.68;;;4.20;99.90;;;;;;5083827;28;20199;-87
2023/12/13 00:13:25;;;;;;;26.38;16.15;;;4.10;99.90;;;;;;5085153;28;20281;-87
2023/12/13 00:15:53;;;;;;;18.45;13.88;;;4.10;99.90;;;;;;5081078;28;20198;-87
2023/12/13 00:18:19;;;;;;;21.42;15.05;;;4.00;99.90;;;;;;5077712;28;20241;-87
2023/12/13 00:20:48;;;;;;;26.00;14.70;;;4.10;99.90;;;;;;5077271;28;20208;-87
2023/12/13 00:23:14;;;;;;;22.05;14.73;;;4.20;99.90;;;;;;5076516;28;20233;-87
2023/12/13 00:25:42;;;;;;;35.88;16.50;;;4.10;99.90;;;;;;5077112;28;20233;-87
2023/12/13 00:28:08;;;;;;;34.25;16.48;;;4.30;99.90;;;;;;5076233;28;20614;-87
2023/12/13 00:30:34;;;;;;;25.35;16.45;;;4.20;99.90;;;;;;5076801;28;20202;-85
2023/12/13 00:33:01;;;;;;;24.90;14.60;;;4.20;99.90;;;;;;5076896;28;20644;-86
2023/12/13 00:35:28;;;;;;;32.15;17.48;;;4.20;99.90;;;;;;5077473;28;20606;-85
2023/12/13 00:37:56;;;;;;;25.02;16.17;;;4.50;99.90;;;;;;5086804;28;20224;-85
2023/12/13 00:40:24;;;;;;;29.63;17.20;;;4.30;99.90;;;;;;5081374;28;20240;-86
2023/12/13 00:42:51;;;;;;;27.98;16.20;;;4.30;99.90;;;;;;5080657;28;20198;-85
2023/12/13 00:45:18;;;;;;;22.90;15.82;;;4.20;99.90;;;;;;5079500;28;20248;-87
2023/12/13 00:47:45;;;;;;;28.48;15.63;;;4.20;99.90;;;;;;5078961;28;20226;-87
2023/12/13 00:50:12;;;;;;;23.77;15.40;;;4.20;99.90;;;;;;5079157;28;20284;-86
2023/12/13 00:52:39;;;;;;;29.80;16.55;;;4.20;99.90;;;;;;5085649;28;20214;-86
2023/12/13 00:55:08;;;;;;;28.60;15.50;;;4.20;99.90;;;;;;5096963;28;20229;-86
2023/12/13 00:57:35;;;;;;;22.63;15.05;;;4.00;99.90;;;;;;5098653;28;20244;-86
2023/12/13 01:00:02;;;;;;;26.25;14.25;;;4.20;99.90;;;;;;5098741;28;20194;-86
2023/12/13 01:02:29;;;;;;;25.75;14.90;;;4.20;99.90;;;;;;5098498;28;20254;-87
2023/12/13 01:04:56;;;;;;;27.15;16.67;;;4.10;99.90;;;;;;5098643;28;20201;-87
2023/12/13 01:07:23;;;;;;;24.58;14.93;;;4.30;99.90;;;;;;5081087;28;20308;-87
2023/12/13 01:09:50;;;;;;;21.77;15.40;;;4.20;99.90;;;;;;5079316;28;20229;-87
2023/12/13 01:12:18;;;;;;;27.05;15.13;;;4.20;99.90;;;;;;5079121;28;20206;-87
2023/12/13 01:14:45;;;;;;;24.90;15.50;;;4.20;99.90;;;;;;5079768;28;20313;-87
2023/12/13 01:17:12;;;;;;;27.05;14.80;;;4.10;99.90;;;;;;5079648;28;20210;-86
2023/12/13 01:19:39;;;;;;;31.33;16.20;;;4.20;99.90;;;;;;5079843;28;20202;-86
2023/12/13 01:22:06;;;;;;;27.23;15.25;;;4.20;99.90;;;;;;5078980;28;20240;-86
2023/12/13 01:24:33;;;;;;;24.92;15.77;;;4.40;99.90;;;;;;5080258;28;20226;-86
2023/12/13 01:26:59;;;;;;;24.23;15.35;;;4.20;99.90;;;;;;5077286;28;20260;-87
2023/12/13 01:29:28;;;;;;;27.70;16.27;;;4.30;99.90;;;;;;5076298;28;20755;-87
2023/12/13 01:31:54;;;;;;;32.33;17.10;;;4.30;99.90;;;;;;5076225;28;20617;-86
2023/12/13 01:34:21;;;;;;;24.60;15.02;;;4.30;99.90;;;;;;5078360;28;20306;-86
2023/12/13 01:36:48;;;;;;;29.02;18.17;;;4.30;99.90;;;;;;5080687;28;20209;-86
2023/12/13 01:39:16;;;;;;;26.25;15.23;;;4.30;99.90;;;;;;5082101;28;20236;-86
2023/12/13 01:41:43;;;;;;;23.67;14.18;;;4.30;99.90;;;;;;5082729;28;20237;-86
2023/12/13 01:44:11;;;;;;;23.25;15.05;;;4.30;99.90;;;;;;5084615;28;20228;-86
2023/12/13 01:46:40;;;;;;;30.45;17.08;;;4.00;99.90;;;;;;5085328;28;20212;-86
2023/12/13 01:49:08;;;;;;;28.42;16.27;;;4.30;99.90;;;;;;5080445;28;20279;-86
2023/12/13 01:51:36;;;;;;;27.85;15.77;;;4.40;99.90;;;;;;5079668;28;20271;-86
2023/12/13 01:54:05;;;;;;;21.70;14.80;;;4.40;99.90;;;;;;5081915;28;20297;-86
2023/12/13 01:56:33;;;;;;;27.27;15.73;;;4.40;99.90;;;;;;5087405;28;20390;-86
2023/12/13 01:59:00;;;;;;;30.85;15.40;;;4.30;99.90;;;;;;5088736;28;20218;-86
2023/12/13 02:01:29;;;;;;;26.50;15.77;;;4.40;99.90;;;;;;5082701;28;20266;-86
2023/12/13 02:03:57;;;;;;;26.17;17.02;;;4.40;99.90;;;;;;5082750;28;20202;-86
2023/12/13 02:06:24;;;;;;;24.98;15.60;;;4.40;99.90;;;;;;5081586;28;20297;-86
2023/12/13 02:08:51;;;;;;;25.38;15.95;;;4.40;99.90;;;;;;5082507;28;20225;-86
2023/12/13 02:11:18;;;;;;;26.88;16.25;;;4.30;99.90;;;;;;5095146;28;20203;-86
2023/12/13 02:13:45;;;;;;;25.60;16.13;;;4.40;99.90;;;;;;5097920;28;20217;-86
2023/12/13 02:16:12;;;;;;;21.05;14.15;;;4.30;99.90;;;;;;5087133;28;20308;-86
2023/12/13 02:18:38;;;;;;;24.48;15.77;;;4.30;99.90;;;;;;5085632;28;20313;-86
2023/12/13 02:21:07;;;;;;;23.58;16.38;;;4.40;99.90;;;;;;5086680;28;20205;-86
2023/12/13 02:23:37;;;;;;;22.88;15.07;;;4.40;99.90;;;;;;5086451;28;20206;-86
2023/12/13 02:26:05;;;;;;;24.88;16.40;;;4.40;99.90;;;;;;5083709;28;20261;-86
2023/12/13 02:28:32;;;;;;;21.02;15.13;;;4.40;99.90;;;;;;5083105;28;20293;-86
2023/12/13 02:31:00;;;;;;;19.77;13.65;;;4.30;99.90;;;;;;5083151;28;20572;-86
2023/12/13 02:33:27;;;;;;;32.15;16.75;;;4.30;99.90;;;;;;5081632;28;20234;-86
2023/12/13 02:35:57;;;;;;;25.10;15.55;;;4.30;99.90;;;;;;5080644;28;20281;-86
2023/12/13 02:38:24;;;;;;;22.88;14.80;;;4.40;99.90;;;;;;5081650;28;20325;-86
2023/12/13 02:40:53;;;;;;;23.35;16.15;;;4.50;99.90;;;;;;5081920;28;20220;-86
2023/12/13 02:43:20;;;;;;;21.20;15.80;;;4.40;99.90;;;;;;5081442;28;20198;-86
2023/12/13 02:45:47;;;;;;;22.80;14.48;;;4.40;99.90;;;;;;5081094;28;20294;-86
2023/12/13 02:48:14;;;;;;;22.48;16.25;;;4.40;99.90;;;;;;5082620;28;20237;-85
2023/12/13 02:50:41;;;;;;;18.70;13.50;;;4.40;99.90;;;;;;5098883;28;20209;-86
2023/12/13 02:53:08;;;;;;;21.77;13.45;;;4.30;99.90;;;;;;5098391;28;20222;-86
2023/12/13 02:55:34;;;;;;;26.48;14.38;;;4.10;99.90;;;;;;5084977;28;20225;-85
2023/12/13 02:58:04;;;;;;;25.48;14.48;;;4.40;99.90;;;;;;5085574;28;20281;-86
2023/12/13 03:00:31;;;;;;;24.00;14.52;;;4.40;99.90;;;;;;5084984;28;20284;-86
2023/12/13 03:02:58;;;;;;;17.98;13.65;;;4.40;99.90;;;;;;5084976;28;20302;-86
2023/12/13 03:05:25;;;;;;;21.52;14.70;;;4.40;99.90;;;;;;5087230;28;20694;-85
2023/12/13 03:07:52;;;;;;;22.55;14.18;;;4.40;99.90;;;;;;5085234;28;20282;-86
2023/12/13 03:10:19;;;;;;;21.90;14.25;;;4.40;99.90;;;;;;5083591;28;20308;-85
2023/12/13 03:12:46;;;;;;;22.98;16.15;;;4.50;99.90;;;;;;5081493;28;20595;-85
2023/12/13 03:15:14;;;;;;;22.05;14.63;;;4.50;99.90;;;;;;5081052;28;20317;-85
2023/12/13 03:17:41;;;;;;;23.98;13.75;;;4.40;99.90;;;;;;5096354;28;20241;-85
2023/12/13 03:20:09;;;;;;;27.08;14.18;;;4.20;99.90;;;;;;5100626;28;20170;-85
2023/12/13 03:22:36;;;;;;;19.83;13.77;;;4.40;99.90;;;;;;5093374;28;20222;-86
2023/12/13 03:25:03;;;;;;;28.58;15.43;;;4.40;99.90;;;;;;5084195;28;20233;-85
2023/12/13 03:27:31;;;;;;;21.75;14.80;;;4.50;99.90;;;;;;5091512;28;20226;-86
2023/12/13 03:29:58;;;;;;;26.17;15.63;;;4.80;99.90;;;;;;5083151;28;20225;-85
2023/12/13 03:32:26;;;;;;;26.20;16.10;;;4.60;99.90;;;;;;5088519;28;20237;-85
2023/12/13 03:34:53;;;;;;;22.25;17.15;;;4.50;99.90;;;;;;5080255;28;20218;-85
2023/12/13 03:37:20;;;;;;;19.75;15.30;;;4.70;99.90;;;;;;5079636;28;20300;-85
2023/12/13 03:39:47;;;;;;;23.45;14.80;;;4.60;99.90;;;;;;5079472;28;20261;-85
2023/12/13 03:42:13;;;;;;;24.45;16.95;;;4.60;99.90;;;;;;5079733;28;20289;-85
2023/12/13 03:44:40;;;;;;;22.35;14.20;;;4.60;99.90;;;;;;5079131;28;20202;-86
2023/12/13 03:47:07;;;;;;;27.55;16.23;;;4.50;99.90;;;;;;5078597;28;20225;-87
2023/12/13 03:49:35;;;;;;;23.90;15.70;;;4.70;99.90;;;;;;5079252;28;20318;-86
2023/12/13 03:52:02;;;;;;;21.10;14.40;;;4.50;99.90;;;;;;5081516;28;20207;-86
2023/12/13 03:54:29;;;;;;;24.10;14.68;;;4.60;99.90;;;;;;5081713;28;20289;-86
2023/12/13 03:56:56;;;;;;;22.33;15.77;;;4.60;99.90;;;;;;5079214;28;20293;-86
2023/12/13 03:59:23;;;;;;;23.08;16.27;;;4.60;99.90;;;;;;5077809;28;20222;-86
2023/12/13 04:01:50;;;;;;;22.00;15.45;;;4.40;99.90;;;;;;5077851;28;20682;-86
2023/12/13 04:04:17;;;;;;;21.65;15.02;;;4.60;99.90;;;;;;5080045;28;20251;-86
2023/12/13 04:06:45;;;;;;;20.60;15.15;;;4.60;99.90;;;;;;5077996;28;20205;-86
2023/12/13 04:09:12;;;;;;;19.70;14.57;;;4.60;99.90;;;;;;5077656;28;20298;-86
2023/12/13 04:11:39;;;;;;;23.42;16.08;;;4.60;99.90;;;;;;5078269;28;20548;-87
2023/12/13 04:14:06;;;;;;;29.33;16.85;;;4.60;99.90;;;;;;5081045;28;20690;-86
2023/12/13 04:16:33;;;;;;;27.55;19.05;;;4.60;99.90;;;;;;5085581;28;20222;-85
2023/12/13 04:19:00;;;;;;;26.02;16.20;;;4.70;99.90;;;;;;5083827;28;20233;-86
2023/12/13 04:21:26;;;;;;;23.95;16.30;;;4.70;99.90;;;;;;5081601;28;20202;-86
2023/12/13 04:23:55;;;;;;;21.35;16.13;;;5.20;99.90;;;;;;5077789;28;20228;-86
2023/12/13 04:26:21;;;;;;;27.70;17.15;;;4.60;99.90;;;;;;5078389;28;20237;-86
2023/12/13 04:28:47;;;;;;;23.90;16.20;;;4.70;99.90;;;;;;5078781;28;20226;-86
2023/12/13 04:31:14;;;;;;;21.98;16.05;;;4.50;99.90;;;;;;5081090;28;20447;-86
2023/12/13 04:33:41;;;;;;;25.15;15.85;;;4.70;99.90;;;;;;5084487;28;20269;-86
2023/12/13 04:36:09;;;;;;;24.02;16.02;;;4.70;99.90;;;;;;5090811;28;20253;-86
2023/12/13 04:38:36;;;;;;;23.55;16.58;;;4.70;99.90;;;;;;5085306;28;20258;-87
2023/12/13 04:41:05;;;;;;;26.17;18.25;;;4.70;99.90;;;;;;5081996;28;20233;-86
2023/12/13 04:43:32;;;;;;;25.83;16.60;;;4.80;99.90;;;;;;5079530;28;20230;-86
2023/12/13 04:45:59;;;;;;;29.83;15.88;;;4.80;99.90;;;;;;5078421;28;20266;-87
2023/12/13 04:48:25;;;;;;;29.35;16.48;;;4.80;99.90;;;;;;5078066;28;20234;-86
2023/12/13 04:50:52;;;;;;;23.98;15.75;;;4.80;99.90;;;;;;5078482;28;20247;-86
2023/12/13 04:53:19;;;;;;;26.92;17.70;;;4.90;99.90;;;;;;5079496;28;20233;-86
2023/12/13 04:55:46;;;;;;;24.40;17.08;;;4.90;99.90;;;;;;5084395;28;20224;-87
2023/12/13 04:58:14;;;;;;;26.40;16.83;;;4.90;99.90;;;;;;5086751;28;20242;-87
2023/12/13 05:00:42;;;;;;;26.63;16.50;;;4.80;99.90;;;;;;5098910;28;20233;-85
2023/12/13 05:03:08;;;;;;;21.80;16.83;;;4.90;99.90;;;;;;5098814;28;20190;-86
2023/12/13 05:05:35;;;;;;;30.17;16.95;;;4.80;99.90;;;;;;5083574;28;20285;-86
2023/12/13 05:08:04;;;;;;;27.85;16.80;;;4.90;99.90;;;;;;5078678;28;20218;-85
2023/12/13 05:10:32;;;;;;;26.23;17.30;;;4.80;99.90;;;;;;5078170;28;20194;-86
2023/12/13 05:12:59;;;;;;;25.52;17.60;;;4.80;99.90;;;;;;5089820;28;20226;-86
2023/12/13 05:15:27;;;;;;;29.60;18.77;;;4.80;99.90;;;;;;5080367;28;20261;-86
2023/12/13 05:17:54;;;;;;;23.70;16.60;;;4.80;99.90;;;;;;5079046;28;20222;-86
2023/12/13 05:20:21;;;;;;;26.13;16.95;;;4.80;99.90;;;;;;5079280;28;20288;-86
2023/12/13 05:22:48;;;;;;;27.80;17.63;;;4.80;99.90;;;;;;5088270;28;20194;-86
2023/12/13 05:25:15;;;;;;;22.50;16.45;;;4.80;99.90;;;;;;5081650;28;20226;-86
2023/12/13 05:27:42;;;;;;;28.15;17.15;;;4.80;99.90;;;;;;5078968;28;20249;-86
2023/12/13 05:30:10;;;;;;;30.05;18.10;;;4.80;99.90;;;;;;5118373;22;20294;-86
2023/12/13 05:32:38;;;;;;;27.52;16.45;;;4.80;99.90;;;;;;5061815;28;20203;-87
2023/12/13 05:35:05;;;;;;;27.67;17.80;;;4.90;99.90;;;;;;5062118;28;20235;-88
2023/12/13 05:37:32;;;;;;;28.58;17.00;;;4.90;99.90;;;;;;5060833;28;20198;-86
2023/12/13 05:39:59;;;;;;;29.15;18.92;;;4.80;99.90;;;;;;5076330;28;20230;-86
2023/12/13 05:42:26;;;;;;;30.15;17.63;;;4.80;99.90;;;;;;5079326;28;20747;-86
2023/12/13 05:44:53;;;;;;;27.63;17.55;;;4.90;99.90;;;;;;5079825;28;20202;-86
2023/12/13 05:47:20;;;;;;;28.02;18.45;;;4.80;99.90;;;;;;5079668;28;20289;-86
2023/12/13 05:49:48;;;;;;;25.90;18.08;;;4.80;99.90;;;;;;5080088;28;20226;-86
2023/12/13 05:52:15;;;;;;;35.08;18.98;;;4.80;99.90;;;;;;5088938;28;20221;-85
2023/12/13 05:54:42;;;;;;;30.63;18.10;;;4.90;99.90;;;;;;5095543;28;20193;-85
2023/12/13 05:57:09;;;;;;;30.98;18.08;;;4.90;99.90;;;;;;5086678;28;20222;-86
2023/12/13 05:59:36;;;;;;;31.15;19.60;;;4.80;99.90;;;;;;5082697;28;20253;-86
2023/12/13 06:02:03;;;;;;;29.80;21.20;;;4.90;99.90;;;;;;5081720;28;20209;-86
2023/12/13 06:04:29;;;;;;;28.83;19.63;;;4.80;99.90;;;;;;5081833;28;20203;-85
2023/12/13 06:06:58;;;;;;;30.38;21.98;;;4.90;99.90;;;;;;5080275;28;20198;-86
2023/12/13 06:09:25;;;;;;;35.35;20.58;;;4.90;99.90;;;;;;5082219;28;20222;-86
2023/12/13 06:11:52;;;;;;;33.05;20.45;;;4.90;99.90;;;;;;5086933;28;20226;-85
2023/12/13 06:14:18;;;;;;;31.73;21.67;;;4.90;99.90;;;;;;5080853;28;20202;-88
2023/12/13 06:16:45;;;;;;;33.05;21.80;;;4.90;99.90;;;;;;5080214;28;20332;-86
2023/12/13 06:19:12;;;;;;;35.55;20.27;;;4.90;99.90;;;;;;5085009;28;20254;-87
2023/12/13 06:21:40;;;;;;;27.17;19.42;;;4.90;99.90;;;;;;5089258;28;20685;-89
2023/12/13 06:24:09;;;;;;;32.58;19.88;;;4.90;99.90;;;;;;5088670;28;20209;-86
2023/12/13 06:26:35;;;;;;;37.47;20.67;;;5.00;99.90;;;;;;5087780;28;20198;-87
2023/12/13 06:29:02;;;;;;;33.60;21.55;;;5.00;99.90;;;;;;5088668;28;20290;-85
2023/12/13 06:31:30;;;;;;;33.50;19.50;;;5.00;99.90;;;;;;5091672;28;20198;-89
2023/12/13 06:33:58;;;;;;;26.15;19.60;;;5.00;99.90;;;;;;5092275;28;20347;-85
2023/12/13 06:36:24;;;;;;;31.48;24.17;;;5.00;99.90;;;;;;5091014;28;20276;-85
2023/12/13 06:38:51;;;;;;;30.70;21.50;;;5.10;99.90;;;;;;5087659;28;20230;-84
2023/12/13 06:41:19;;;;;;;32.50;20.80;;;5.00;99.90;;;;;;5084565;28;20296;-85
2023/12/13 06:43:47;;;;;;;33.65;20.00;;;5.00;99.90;;;;;;5085024;28;20206;-86
2023/12/13 06:46:13;;;;;;;32.47;19.30;;;5.00;99.90;;;;;;5084217;28;20615;-86
2023/12/13 06:48:40;;;;;;;29.70;19.77;;;5.00;99.90;;;;;;5094542;28;20256;-86
2023/12/13 06:51:08;;;;;;;30.60;19.92;;;5.10;99.90;;;;;;5087449;28;20312;-87
2023/12/13 06:53:37;;;;;;;26.52;19.35;;;5.10;99.90;;;;;;5084168;28;20207;-86
2023/12/13 06:56:04;;;;;;;26.80;18.52;;;5.10;99.90;;;;;;5083378;28;20716;-86
2023/12/13 06:58:34;;;;;;;27.20;19.52;;;5.10;99.90;;;;;;5083776;28;20317;-86
2023/12/13 07:01:01;;;;;;;29.27;18.83;;;5.20;99.90;;;;;;5085241;28;20260;-86
2023/12/13 07:03:28;;;;;;;29.95;18.17;;;5.20;99.90;;;;;;5089113;28;20288;-85
2023/12/13 07:05:55;;;;;;;28.70;19.05;;;5.10;99.90;;;;;;5093718;28;20285;-86
2023/12/13 07:08:21;;;;;;;27.48;17.63;;;5.20;99.90;;;;;;5092600;28;20274;-85
2023/12/13 07:10:48;;;;;;;32.28;21.05;;;5.10;99.90;;;;;;5093663;28;20214;-86
2023/12/13 07:13:15;;;;;;;29.02;19.65;;;5.10;99.90;;;;;;5089730;28;20230;-85
2023/12/13 07:15:43;;;;;;;30.45;17.20;;;5.10;99.90;;;;;;5087660;28;20255;-87
2023/12/13 07:18:10;;;;;;;24.30;16.08;;;4.80;99.90;;;;;;5087563;28;20232;-87
2023/12/13 07:20:37;;;;;;;22.40;16.02;;;5.20;99.90;;;;;;5086641;28;20262;-87
2023/12/13 07:23:05;;;;;;;23.10;17.27;;;5.10;99.90;;;;;;5083842;28;20202;-87
2023/12/13 07:25:32;;;;;;;27.15;16.58;;;5.10;99.90;;;;;;5082407;28;20677;-86
2023/12/13 07:27:59;;;;;;;22.63;16.80;;;5.10;99.90;;;;;;5081622;28;20212;-87
2023/12/13 07:30:26;;;;;;;23.73;16.60;;;5.10;99.90;;;;;;5080759;28;20312;-86
2023/12/13 07:32:54;;;;;;;20.48;14.77;;;5.10;99.90;;;;;;5081126;28;20626;-85
2023/12/13 07:35:22;;;;;;;21.02;15.05;;;5.10;99.90;;;;;;5080674;28;20230;-87
2023/12/13 07:37:49;;;;;;;26.10;17.85;;;5.10;99.90;;;;;;5082274;28;20690;-86
2023/12/13 07:40:16;;;;;;;23.70;15.45;;;5.20;99.90;;;;;;5082683;28;20226;-86
2023/12/13 07:42:43;;;;;;;18.90;14.48;;;5.20;99.90;;;;;;5083423;28;20675;-86
2023/12/13 07:45:11;;;;;;;25.38;17.08;;;5.20;99.90;;;;;;5083562;28;20230;-87
2023/12/13 07:47:38;;;;;;;24.13;16.85;;;5.20;99.90;;;;;;5082804;28;20198;-87
2023/12/13 07:50:08;;;;;;;28.73;17.10;;;5.20;99.90;;;;;;5082157;28;20230;-86
2023/12/13 07:52:35;;;;;;;21.30;15.02;;;5.20;99.90;;;;;;5082515;28;20682;-86
2023/12/13 07:55:02;;;;;;;27.75;17.60;;;5.20;99.90;;;;;;5082356;28;20301;-87
2023/12/13 07:57:29;;;;;;;25.58;18.60;;;5.20;99.90;;;;;;5082367;28;20754;-87
2023/12/13 07:59:56;;;;;;;30.02;21.00;;;5.20;99.90;;;;;;5083035;28;20223;-85
2023/12/13 08:02:24;;;;;;;25.13;17.40;;;5.20;99.90;;;;;;5083151;28;20202;-87
2023/12/13 08:04:51;;;;;;;26.90;17.52;;;5.20;99.90;;;;;;5081491;28;20225;-86
2023/12/13 08:07:19;;;;;;;23.25;16.70;;;5.20;99.90;;;;;;5080499;28;20714;-87
2023/12/13 08:09:45;;;;;;;28.92;19.00;;;5.20;99.90;;;;;;5077474;28;20229;-86
2023/12/13 08:12:12;;;;;;;31.08;18.48;;;5.20;99.90;;;;;;5081258;28;20230;-86
2023/12/13 08:14:39;;;;;;;26.88;17.70;;;5.00;99.90;;;;;;5094516;28;20246;-87
2023/12/13 08:17:08;;;;;;;25.55;18.00;;;5.20;99.90;;;;;;5095466;28;20320;-86
2023/12/13 08:19:36;;;;;;;32.80;21.00;;;5.20;99.90;;;;;;5098034;28;20210;-84
2023/12/13 08:22:03;;;;;;;27.88;20.17;;;5.20;99.90;;;;;;5099302;28;20217;-83
2023/12/13 08:24:31;;;;;;;29.25;19.98;;;5.20;99.90;;;;;;5099406;28;20182;-84
2023/12/13 08:26:58;;;;;;;30.25;19.88;;;5.20;99.90;;;;;;5085490;28;20266;-86
2023/12/13 08:29:24;;;;;;;30.58;19.95;;;5.40;99.90;;;;;;5086569;28;20214;-84
2023/12/13 08:31:51;;;;;;;27.05;19.02;;;5.20;99.90;;;;;;5086716;28;20545;-85
2023/12/13 08:34:18;;;;;;;34.30;21.40;;;5.30;99.90;;;;;;5078750;28;20209;-87
2023/12/13 08:36:45;;;;;;;28.75;19.00;;;5.30;99.90;;;;;;5078443;28;20245;-86
2023/12/13 08:39:12;;;;;;;33.38;20.52;;;5.30;99.90;;;;;;5078387;28;20249;-86
2023/12/13 08:41:40;;;;;;;31.65;21.35;;;5.30;99.90;;;;;;5096997;28;20206;-85
2023/12/13 08:44:07;;;;;;;32.70;20.73;;;5.00;99.90;;;;;;5083968;28;20237;-85
2023/12/13 08:46:34;;;;;;;31.52;22.33;;;5.30;99.90;;;;;;5087126;28;20572;-87
2023/12/13 08:49:01;;;;;;;35.13;20.45;;;5.30;99.90;;;;;;5079755;28;20396;-87
2023/12/13 08:51:27;;;;;;;39.72;21.75;;;5.30;99.90;;;;;;5087321;28;20638;-87
2023/12/13 08:53:55;;;;;;;35.47;21.35;;;5.30;99.90;;;;;;5084413;28;20241;-85
2023/12/13 08:56:22;;;;;;;32.15;20.48;;;5.40;99.90;;;;;;5087471;28;20277;-86
2023/12/13 08:58:50;;;;;;;34.72;20.27;;;5.30;99.90;;;;;;5087402;28;20253;-85
2023/12/13 09:01:17;;;;;;;33.53;21.83;;;5.40;99.90;;;;;;5081359;28;20285;-86
2023/12/13 09:03:45;;;;;;;29.80;18.95;;;5.40;99.90;;;;;;5081980;28;20209;-85
2023/12/13 09:06:13;;;;;;;29.35;20.20;;;5.40;99.90;;;;;;5082921;28;20210;-85
2023/12/13 09:08:40;;;;;;;29.75;19.15;;;5.50;99.90;;;;;;5084605;28;20249;-85
2023/12/13 09:11:08;;;;;;;30.42;20.80;;;5.40;99.90;;;;;;5086784;28;20244;-86
2023/12/13 09:13:35;;;;;;;30.83;19.50;;;5.50;99.90;;;;;;5084665;28;20213;-85
2023/12/13 09:16:04;;;;;;;32.47;21.25;;;5.50;99.90;;;;;;5080684;28;20210;-86
2023/12/13 09:18:31;;;;;;;31.73;20.20;;;5.50;99.90;;;;;;5080276;28;20238;-86
2023/12/13 09:20:58;;;;;;;31.42;21.75;;;5.40;99.90;;;;;;5089574;28;20333;-85
2023/12/13 09:23:26;;;;;;;38.35;21.70;;;5.50;99.90;;;;;;5097250;28;20198;-84
2023/12/13 09:25:54;;;;;;;30.98;20.60;;;5.50;99.90;;;;;;5090138;28;20202;-84
2023/12/13 09:28:22;;;;;;;35.70;20.70;;;5.80;99.90;;;;;;5094002;28;20206;-86
2023/12/13 09:30:49;;;;;;;32.97;21.35;;;5.50;99.90;;;;;;5090143;28;20194;-85
2023/12/13 09:33:17;;;;;;;41.40;22.63;;;5.50;99.90;;;;;;5082993;28;20198;-84
2023/12/13 09:35:44;;;;;;;35.35;21.20;;;5.50;99.90;;;;;;5079831;28;20572;-85
2023/12/13 09:38:11;;;;;;;38.20;24.17;;;5.60;99.90;;;;;;5079491;28;20214;-86
2023/12/13 09:40:38;;;;;;;32.85;21.67;;;5.50;99.90;;;;;;5082972;28;20236;-85
2023/12/13 09:43:05;;;;;;;35.35;22.23;;;5.50;99.90;;;;;;5083323;28;20226;-85
2023/12/13 09:45:32;;;;;;;34.38;20.45;;;5.50;99.90;;;;;;5080878;28;20234;-84
2023/12/13 09:47:59;;;;;;;30.45;20.23;;;5.50;99.90;;;;;;5079806;28;20711;-85
2023/12/13 09:50:29;;;;;;;36.80;21.73;;;5.50;99.90;;;;;;5078901;28;20222;-86
2023/12/13 09:52:56;;;;;;;31.35;21.13;;;5.50;99.90;;;;;;5092454;28;20739;-84
2023/12/13 09:55:23;;;;;;;36.50;23.30;;;5.50;99.90;;;;;;5099234;28;20225;-86
2023/12/13 09:57:50;;;;;;;34.50;22.33;;;5.40;99.90;;;;;;5101872;28;20210;-85
2023/12/13 10:00:18;;;;;;;32.30;21.58;;;5.50;99.90;;;;;;5102354;28;20198;-83
2023/12/13 10:02:46;;;;;;;35.45;21.70;;;5.60;99.90;;;;;;5102355;28;20209;-83
2023/12/13 10:05:17;;;;;;;34.10;22.95;;;5.60;99.90;;;;;;5102352;28;20233;-83
2023/12/13 10:07:45;;;;;;;36.70;21.85;;;5.50;99.90;;;;;;5102058;28;20171;-85
2023/12/13 10:10:12;;;;;;;35.72;21.92;;;5.50;99.90;;;;;;5102118;28;20229;-84
2023/12/13 10:12:39;;;;;;;40.35;23.45;;;5.50;99.90;;;;;;5101861;28;20202;-84
2023/12/13 10:15:10;;;;;;;34.28;21.98;;;5.60;99.90;;;;;;5088394;28;20568;-86
2023/12/13 10:17:38;;;;;;;39.42;23.17;;;5.60;99.90;;;;;;5090563;28;20245;-85
2023/12/13 10:20:07;;;;;;;40.00;22.13;;;5.60;99.90;;;;;;5090423;28;20678;-86
2023/12/13 10:22:33;;;;;;;35.22;22.80;;;5.60;99.90;;;;;;5082736;28;20256;-88
2023/12/13 10:25:01;;;;;;;38.70;23.37;;;5.60;99.90;;;;;;5082464;28;20198;-85
2023/12/13 10:27:28;;;;;;;36.53;22.00;;;5.50;99.90;;;;;;5082576;28;20523;-86
2023/12/13 10:29:56;;;;;;;36.85;22.73;;;5.60;99.90;;;;;;5081131;28;20295;-85
2023/12/13 10:32:23;;;;;;;37.60;23.65;;;5.50;99.90;;;;;;5083275;28;20206;-86
2023/12/13 10:34:50;;;;;;;40.15;23.63;;;5.50;99.90;;;;;;5098408;28;20217;-85
2023/12/13 10:37:19;;;;;;;34.40;23.25;;;5.50;99.90;;;;;;5095199;28;20281;-85
2023/12/13 10:39:48;;;;;;;35.35;21.63;;;5.60;99.90;;;;;;5096264;28;20222;-85
2023/12/13 10:42:18;;;;;;;42.00;24.27;;;5.50;99.90;;;;;;5092908;28;20710;-87
2023/12/13 10:44:46;;;;;;;34.35;23.70;;;5.50;99.90;;;;;;5090886;28;20203;-87
2023/12/13 10:47:14;;;;;;;35.85;24.10;;;5.60;99.90;;;;;;5088042;28;20206;-87
2023/12/13 10:49:43;;;;;;;35.42;22.20;;;5.60;99.90;;;;;;5088651;28;20578;-87
2023/12/13 10:52:10;;;;;;;38.60;24.77;;;5.60;99.90;;;;;;5084059;28;20226;-87
2023/12/13 10:54:38;;;;;;;36.88;23.25;;;5.60;99.90;;;;;;5082607;28;20237;-85
2023/12/13 10:57:06;;;;;;;35.80;22.17;;;5.60;99.90;;;;;;5081725;28;20226;-86
2023/12/13 10:59:36;;;;;;;44.47;24.58;;;5.60;99.90;;;;;;5084003;28;20222;-85
2023/12/13 11:02:05;;;;;;;36.22;23.45;;;5.60;99.90;;;;;;5088177;28;20190;-85
2023/12/13 11:04:33;;;;;;;32.08;22.17;;;5.60;99.90;;;;;;5080876;28;20404;-86
2023/12/13 11:07:03;;;;;;;38.92;25.75;;;5.60;99.90;;;;;;5081393;28;20288;-86
2023/12/13 11:09:30;;;;;;;39.28;23.10;;;5.60;99.90;;;;;;5093651;28;20233;-86
2023/12/13 11:11:59;;;;;;;41.70;24.42;;;5.50;99.90;;;;;;5086414;28;20679;-87
2023/12/13 11:14:27;;;;;;;44.28;25.38;;;5.50;99.90;;;;;;5088720;28;20213;-86
2023/12/13 11:16:59;;;;;;;38.97;24.67;;;5.50;99.90;;;;;;5100104;28;20194;-84
2023/12/13 11:19:27;;;;;;;43.75;25.23;;;5.60;99.90;;;;;;5092956;28;20220;-84
2023/12/13 11:21:56;;;;;;;38.35;24.42;;;5.70;99.90;;;;;;5100463;28;20187;-83
2023/12/13 11:24:26;;;;;;;45.25;25.20;;;5.60;99.90;;;;;;5091976;28;20250;-86
2023/12/13 11:26:53;;;;;;;32.83;22.20;;;5.60;99.90;;;;;;5087369;28;20213;-86
2023/12/13 11:29:22;;;;;;;37.22;23.10;;;5.50;99.90;;;;;;5082468;22;20231;-87
2023/12/13 11:31:52;;;;;;;41.72;26.02;;;5.90;99.90;;;;;;5040843;28;20206;-87
2023/12/13 11:34:32;;;;;;;39.53;24.55;;;5.60;99.90;;;;;;5040081;28;20294;-87
2023/12/13 11:37:00;;;;;;;39.20;23.40;;;5.60;99.90;;;;;;5040972;28;20274;-86
2023/12/13 11:39:27;;;;;;;40.47;24.85;;;5.60;99.90;;;;;;5041313;28;20278;-86
2023/12/13 11:41:54;;;;;;;35.78;24.63;;;5.60;99.90;;;;;;5049610;28;20188;-86
2023/12/13 11:44:21;;;;;;;41.95;24.60;;;5.60;99.90;;;;;;5051442;28;20238;-86
2023/12/13 11:46:54;;;;;;;34.30;23.65;;;5.70;99.90;;;;;;5047590;28;20212;-87
2023/12/13 11:49:26;;;;;;;38.85;23.50;;;5.90;99.90;;;;;;5043253;28;20311;-86
2023/12/13 11:51:53;;;;;;;37.55;24.27;;;6.70;99.90;;;;;;5044026;28;20206;-86
2023/12/13 11:54:20;;;;;;;41.47;24.20;;;5.70;99.90;;;;;;5044150;28;20211;-86
2023/12/13 11:56:47;;;;;;;40.22;24.45;;;5.70;99.90;;;;;;5040922;28;20688;-87
2023/12/13 11:59:14;;;;;;;38.80;22.90;;;5.60;99.90;;;;;;5049113;28;20231;-86
2023/12/13 12:01:42;;;;;;;43.55;25.67;;;5.60;99.90;;;;;;5054415;28;20223;-87
2023/12/13 12:04:09;;;;;;;39.88;24.92;;;5.90;99.90;;;;;;5053956;28;20242;-87
2023/12/13 12:06:45;;;;;;;39.53;22.75;;;5.60;99.90;;;;;;5054104;28;20279;-86
2023/12/13 12:09:12;;;;;;;42.08;24.42;;;5.70;99.90;;;;;;5042307;28;20223;-87
2023/12/13 12:11:39;;;;;;;38.55;22.13;;;5.70;99.90;;;;;;5045643;28;20207;-87
2023/12/13 12:14:08;;;;;;;38.03;24.45;;;5.80;99.90;;;;;;5051495;28;20203;-86
2023/12/13 12:16:35;;;;;;;39.15;22.52;;;5.60;99.90;;;;;;5046960;28;20231;-88
2023/12/13 12:19:06;;;;;;;37.58;23.48;;;7.50;99.90;;;;;;5042929;28;20231;-86
2023/12/13 12:21:35;;;;;;;33.70;21.88;;;7.50;99.90;;;;;;5044481;28;20188;-88
2023/12/13 12:24:04;;;;;;;37.55;23.73;;;5.80;99.90;;;;;;5044870;28;20207;-87
2023/12/13 12:26:31;;;;;;;42.22;22.55;;;5.90;99.90;;;;;;5042130;28;20200;-86
2023/12/13 12:28:58;;;;;;;36.17;23.30;;;5.70;99.90;;;;;;5040464;28;20281;-87
2023/12/13 12:31:28;;;;;;;37.42;23.92;;;;;;;;;;5040555;28;20224;-87
2023/12/13 12:33:57;;;;;;;40.65;24.25;;;4.60;99.90;;;;;;5039980;28;20208;-87
2023/12/13 12:36:25;;;;;;;33.17;22.02;;;5.80;99.90;;;;;;5042744;28;20230;-87
2023/12/13 12:38:52;;;;;;;38.03;20.80;;;5.70;99.90;;;;;;5047138;28;20223;-87